createdAt,value
2022-10-25T00:01:33.663Z,11.40
2022-10-25T00:04:01.880Z,11.30
2022-10-25T00:06:32.408Z,11.30
2022-10-25T00:12:06.854Z,11.20
2022-10-25T00:14:38.146Z,10.90
2022-10-25T00:17:14.906Z,10.90
2022-10-25T00:19:42.996Z,11.00
2022-10-25T00:22:15.153Z,11.10
2022-10-25T00:24:45.316Z,11.20
2022-10-25T00:27:15.318Z,11.20
2022-10-25T00:29:47.837Z,11.30
2022-10-25T00:32:16.223Z,11.30
2022-10-25T00:34:46.539Z,11.30
2022-10-25T00:37:40.301Z,11.30
2022-10-25T00:40:10.135Z,11.20
2022-10-25T00:42:39.655Z,11.30
2022-10-25T00:45:21.103Z,11.30
2022-10-25T00:47:57.384Z,11.20
2022-10-25T00:50:40.982Z,11.30
2022-10-25T00:53:13.698Z,11.30
2022-10-25T00:55:45.586Z,11.30
2022-10-25T00:58:19.026Z,11.30
2022-10-25T01:00:47.283Z,11.20
2022-10-25T01:06:19.768Z,11.10
2022-10-25T01:08:52.869Z,11.10
2022-10-25T01:11:26.499Z,11.10
2022-10-25T01:13:58.900Z,11.10
2022-10-25T01:16:35.876Z,11.10
2022-10-25T01:19:24.862Z,11.00
2022-10-25T01:21:57.539Z,10.90
2022-10-25T01:24:54.244Z,11.00
2022-10-25T01:28:07.855Z,11.00
2022-10-25T01:31:11.324Z,10.90
2022-10-25T01:33:47.212Z,11.00
2022-10-25T01:36:22.762Z,10.90
2022-10-25T01:39:01.421Z,11.00
2022-10-25T01:41:37.596Z,11.60
2022-10-25T01:44:19.494Z,11.30
2022-10-25T01:46:56.658Z,11.10
2022-10-25T01:49:29.748Z,11.10
2022-10-25T01:52:03.502Z,11.10
2022-10-25T01:54:31.942Z,11.20
2022-10-25T01:57:19.960Z,11.20
2022-10-25T02:00:07.229Z,11.20
2022-10-25T02:03:05.765Z,11.20
2022-10-25T02:05:41.560Z,11.20
2022-10-25T02:08:38.293Z,11.20
2022-10-25T02:11:18.401Z,11.40
2022-10-25T02:13:58.111Z,11.50
2022-10-25T02:16:29.287Z,11.60
2022-10-25T02:19:03.647Z,11.60
2022-10-25T02:21:34.243Z,11.60
2022-10-25T02:24:07.708Z,11.50
2022-10-25T02:26:38.832Z,11.40
2022-10-25T02:29:15.961Z,11.30
2022-10-25T02:31:45.507Z,11.20
2022-10-25T02:34:14.866Z,11.20
2022-10-25T02:37:02.019Z,11.20
2022-10-25T02:39:33.281Z,11.20
2022-10-25T02:46:05.870Z,11.10
2022-10-25T02:48:37.942Z,11.10
2022-10-25T02:51:08.840Z,11.20
2022-10-25T02:53:37.918Z,11.20
2022-10-25T02:56:11.220Z,11.20
2022-10-25T02:58:41.291Z,11.20
2022-10-25T03:01:14.632Z,11.20
2022-10-25T03:03:43.520Z,11.30
2022-10-25T03:06:14.021Z,11.30
2022-10-25T03:08:46.257Z,11.30
2022-10-25T03:11:15.789Z,11.20
2022-10-25T03:13:44.385Z,11.20
2022-10-25T03:16:17.792Z,11.20
2022-10-25T03:18:46.220Z,11.30
2022-10-25T03:21:21.975Z,11.30
2022-10-25T03:23:50.176Z,11.30
2022-10-25T03:26:21.806Z,11.20
2022-10-25T03:28:49.841Z,11.30
2022-10-25T03:31:20.677Z,11.20
2022-10-25T03:33:54.790Z,11.30
2022-10-25T03:36:28.475Z,11.30
2022-10-25T03:38:56.591Z,11.40
2022-10-25T03:41:24.837Z,11.50
2022-10-25T03:43:52.958Z,11.60
2022-10-25T03:48:49.594Z,11.70
2022-10-25T03:51:21.747Z,11.60
2022-10-25T03:53:51.354Z,11.60
2022-10-25T03:56:19.958Z,11.50
2022-10-25T03:58:49.877Z,11.50
2022-10-25T04:01:20.662Z,11.50
2022-10-25T04:03:48.874Z,11.50
2022-10-25T04:06:16.875Z,11.60
2022-10-25T04:08:45.016Z,11.80
2022-10-25T04:11:15.161Z,11.80
2022-10-25T04:13:43.565Z,12.00
2022-10-25T04:16:15.778Z,12.10
2022-10-25T04:18:46.506Z,12.20
2022-10-25T04:21:17.699Z,12.20
2022-10-25T04:23:45.722Z,12.20
2022-10-25T04:26:19.574Z,12.20
2022-10-25T04:28:52.311Z,12.10
2022-10-25T04:31:45.007Z,12.20
2022-10-25T04:34:13.249Z,12.30
2022-10-25T04:36:42.838Z,12.20
2022-10-25T04:39:11.254Z,12.20
2022-10-25T04:41:43.985Z,12.10
2022-10-25T04:44:15.040Z,12.00
2022-10-25T04:46:48.586Z,11.90
2022-10-25T04:49:17.684Z,11.90
2022-10-25T04:51:47.065Z,11.90
2022-10-25T04:54:15.487Z,12.00
2022-10-25T04:56:48.127Z,11.70
2022-10-25T04:59:16.398Z,11.70
2022-10-25T05:01:49.389Z,11.60
2022-10-25T05:04:17.561Z,11.50
2022-10-25T05:06:47.506Z,11.60
2022-10-25T05:09:15.807Z,11.70
2022-10-25T05:11:45.287Z,11.80
2022-10-25T05:14:13.928Z,11.90
2022-10-25T05:16:42.166Z,11.80
2022-10-25T05:19:14.059Z,11.90
2022-10-25T05:21:44.596Z,11.90
2022-10-25T05:24:13.183Z,11.90
2022-10-25T05:29:22.024Z,11.90
2022-10-25T05:31:50.162Z,12.00
2022-10-25T05:34:24.254Z,12.30
2022-10-25T05:39:24.269Z,12.30
2022-10-25T05:44:22.240Z,12.10
2022-10-25T05:46:51.927Z,12.10
2022-10-25T05:49:20.203Z,11.90
2022-10-25T05:51:48.879Z,11.90
2022-10-25T05:54:17.892Z,11.90
2022-10-25T05:56:58.118Z,11.90
2022-10-25T05:59:29.864Z,11.90
2022-10-25T06:04:26.684Z,12.30
2022-10-25T06:06:55.878Z,12.10
2022-10-25T06:11:52.530Z,12.00
2022-10-25T06:14:20.718Z,12.10
2022-10-25T06:16:50.123Z,12.10
2022-10-25T06:19:19.614Z,12.10
2022-10-25T06:21:50.323Z,12.10
2022-10-25T06:24:19.077Z,12.20
2022-10-25T06:26:50.050Z,12.20
2022-10-25T06:29:20.507Z,12.30
2022-10-25T06:31:53.106Z,12.30
2022-10-25T06:34:21.634Z,12.30
2022-10-25T06:36:49.711Z,12.30
2022-10-25T06:39:19.775Z,12.40
2022-10-25T06:41:51.681Z,12.40
2022-10-25T06:44:21.612Z,12.40
2022-10-25T06:47:15.748Z,12.50
2022-10-25T06:49:39.596Z,12.50
2022-10-25T06:54:36.895Z,12.80
2022-10-25T06:57:05.132Z,12.80
2022-10-25T07:02:03.669Z,13.10
2022-10-25T07:04:37.073Z,13.00
2022-10-25T07:07:06.902Z,13.00
2022-10-25T07:09:35.109Z,13.00
2022-10-25T07:12:11.463Z,13.10
2022-10-25T07:14:42.358Z,13.00
2022-10-25T07:17:10.452Z,13.00
2022-10-25T07:19:38.733Z,13.00
2022-10-25T07:22:10.534Z,13.00
2022-10-25T07:24:42.632Z,13.00
2022-10-25T07:27:10.810Z,13.00
2022-10-25T07:29:38.984Z,13.00
2022-10-25T07:32:07.201Z,13.30
2022-10-25T07:34:35.435Z,13.10
2022-10-25T07:39:36.641Z,13.20
2022-10-25T07:42:04.792Z,13.30
2022-10-25T07:44:33.137Z,13.30
2022-10-25T07:47:07.036Z,13.50
2022-10-25T07:49:36.565Z,16.60
2022-10-25T07:52:05.495Z,13.50
2022-10-25T07:54:37.540Z,13.60
2022-10-25T07:57:08.430Z,13.60
2022-10-25T07:59:39.790Z,13.60
2022-10-25T08:02:11.903Z,13.50
2022-10-25T08:04:41.196Z,13.40
2022-10-25T08:09:46.892Z,13.50
2022-10-25T08:12:20.291Z,13.60
2022-10-25T08:14:50.474Z,13.70
2022-10-25T08:17:18.747Z,13.80
2022-10-25T08:22:22.852Z,13.90
2022-10-25T08:24:54.947Z,14.00
2022-10-25T08:30:17.988Z,14.00
2022-10-25T08:37:43.637Z,13.90
2022-10-25T08:40:21.026Z,13.80
2022-10-25T08:43:02.230Z,14.10
2022-10-25T08:45:37.282Z,14.20
2022-10-25T08:48:14.812Z,14.40
2022-10-25T08:50:48.115Z,14.60
2022-10-25T08:53:23.012Z,14.60
2022-10-25T08:58:52.060Z,14.60
2022-10-25T09:01:25.216Z,14.80
2022-10-25T09:03:57.409Z,14.90
2022-10-25T09:06:34.426Z,14.80
2022-10-25T09:09:23.209Z,14.90
2022-10-25T09:12:05.657Z,15.00
2022-10-25T09:14:46.684Z,14.70
2022-10-25T09:17:27.099Z,14.80
2022-10-25T09:20:12.044Z,14.80
2022-10-25T09:22:47.934Z,14.80
2022-10-25T09:25:26.932Z,14.90
2022-10-25T09:28:03.650Z,14.80
2022-10-25T09:30:40.475Z,14.80
2022-10-25T09:33:12.564Z,14.80
2022-10-25T09:35:49.504Z,14.90
2022-10-25T09:38:23.621Z,14.90
2022-10-25T09:41:01.066Z,15.10
2022-10-25T09:43:36.378Z,15.20
2022-10-25T09:46:11.971Z,15.20
2022-10-25T09:48:46.549Z,15.10
2022-10-25T09:51:23.502Z,15.10
2022-10-25T09:53:53.115Z,15.00
2022-10-25T09:56:23.758Z,15.10
2022-10-25T10:01:29.504Z,15.30
2022-10-25T10:04:07.193Z,15.30
2022-10-25T10:06:41.084Z,15.30
2022-10-25T10:09:13.799Z,15.30
2022-10-25T10:11:43.545Z,15.30
2022-10-25T10:14:19.598Z,15.20
2022-10-25T10:16:52.021Z,15.10
2022-10-25T10:19:22.034Z,15.10
2022-10-25T10:21:52.407Z,15.20
2022-10-25T10:24:25.517Z,15.30
2022-10-25T10:26:59.463Z,15.30
2022-10-25T10:29:34.813Z,15.90
2022-10-25T10:32:06.490Z,15.80
2022-10-25T10:34:42.478Z,15.80
2022-10-25T10:37:16.783Z,15.70
2022-10-25T10:39:54.583Z,15.80
2022-10-25T10:45:23.781Z,15.80
2022-10-25T10:47:59.044Z,16.20
2022-10-25T10:50:32.797Z,16.50
2022-10-25T10:53:07.625Z,17.10
2022-10-25T10:55:38.553Z,17.10
2022-10-25T10:58:17.671Z,16.70
2022-10-25T11:00:52.455Z,16.50
2022-10-25T11:03:59.045Z,16.90
2022-10-25T11:06:32.152Z,16.90
2022-10-25T11:09:26.861Z,17.20
2022-10-25T11:12:11.861Z,17.10
2022-10-25T11:14:40.117Z,17.00
2022-10-25T11:17:16.953Z,16.80
2022-10-25T11:19:57.034Z,16.70
2022-10-25T11:22:39.346Z,16.70
2022-10-25T11:25:22.429Z,16.70
2022-10-25T11:28:05.349Z,16.70
2022-10-25T11:30:41.238Z,17.10
2022-10-25T11:33:40.947Z,16.60
2022-10-25T11:36:39.196Z,16.70
2022-10-25T11:39:22.805Z,16.70
2022-10-25T11:41:59.384Z,16.80
2022-10-25T11:45:04.640Z,17.00
2022-10-25T11:47:43.329Z,17.30
2022-10-25T11:50:28.479Z,17.60
2022-10-25T11:53:14.841Z,17.20
2022-10-25T11:55:51.172Z,17.20
2022-10-25T11:58:36.152Z,17.10
2022-10-25T12:01:16.384Z,17.20
2022-10-25T12:03:57.907Z,17.10
2022-10-25T12:06:37.213Z,17.10
2022-10-25T12:09:22.675Z,17.20
2022-10-25T12:11:58.335Z,17.60
2022-10-25T12:14:34.998Z,17.60
2022-10-25T12:17:08.021Z,17.80
2022-10-25T12:19:44.438Z,17.60
2022-10-25T12:22:18.720Z,17.70
2022-10-25T12:24:57.500Z,17.40
2022-10-25T12:27:27.465Z,17.30
2022-10-25T12:29:59.310Z,17.40
2022-10-25T12:32:34.662Z,17.50
2022-10-25T12:35:08.515Z,17.60
2022-10-25T12:37:46.117Z,17.90
2022-10-25T12:40:19.690Z,18.20
2022-10-25T12:42:52.537Z,18.00
2022-10-25T12:45:43.089Z,18.00
2022-10-25T12:48:32.067Z,18.10
2022-10-25T12:51:23.180Z,17.90
2022-10-25T12:54:26.479Z,17.90
2022-10-25T12:57:06.600Z,17.90
2022-10-25T12:59:48.973Z,17.70
2022-10-25T13:02:46.919Z,17.70
2022-10-25T13:05:47.287Z,17.70
2022-10-25T13:08:20.534Z,17.80
2022-10-25T13:11:01.867Z,17.80
2022-10-25T13:13:33.811Z,17.60
2022-10-25T13:16:04.612Z,17.60
2022-10-25T13:18:46.183Z,17.60
2022-10-25T13:21:17.853Z,17.40
2022-10-25T13:27:12.042Z,17.40
2022-10-25T13:30:28.791Z,17.40
2022-10-25T13:33:33.917Z,17.30
2022-10-25T13:36:05.408Z,17.60
2022-10-25T13:38:40.056Z,17.60
2022-10-25T13:41:17.589Z,17.60
2022-10-25T13:44:04.668Z,17.60
2022-10-25T13:46:38.477Z,17.50
2022-10-25T13:49:31.876Z,17.50
2022-10-25T13:52:09.207Z,17.50
2022-10-25T13:54:49.775Z,17.60
2022-10-25T13:57:47.210Z,17.50
2022-10-25T14:00:34.138Z,17.50
2022-10-25T14:03:22.370Z,17.40
2022-10-25T14:06:25.779Z,17.30
2022-10-25T14:09:08.739Z,17.30
2022-10-25T14:11:41.107Z,17.30
2022-10-25T14:14:23.279Z,17.30
2022-10-25T14:17:07.812Z,17.20
2022-10-25T14:19:38.753Z,17.10
2022-10-25T14:22:20.654Z,17.10
2022-10-25T14:24:53.642Z,17.10
2022-10-25T14:27:29.560Z,17.00
2022-10-25T14:30:27.337Z,17.10
2022-10-25T14:32:59.146Z,17.20
2022-10-25T14:35:32.814Z,17.20
2022-10-25T14:38:01.819Z,17.20
2022-10-25T14:40:31.961Z,17.20
2022-10-25T14:43:25.709Z,17.20
2022-10-25T14:46:04.107Z,17.20
2022-10-25T14:48:34.569Z,17.20
2022-10-25T14:51:07.711Z,17.20
2022-10-25T14:53:50.634Z,17.20
2022-10-25T14:56:23.163Z,17.10
2022-10-25T14:58:53.390Z,17.10
2022-10-25T15:01:23.184Z,17.20
2022-10-25T15:03:55.015Z,17.10
2022-10-25T15:06:31.047Z,17.20
2022-10-25T15:09:40.791Z,17.10
2022-10-25T15:12:18.053Z,17.10
2022-10-25T15:14:48.210Z,17.10
2022-10-25T15:17:28.498Z,17.10
2022-10-25T15:20:04.627Z,17.10
2022-10-25T15:22:44.115Z,17.20
2022-10-25T15:25:21.037Z,17.20
2022-10-25T15:27:50.344Z,17.20
2022-10-25T15:30:35.382Z,17.10
2022-10-25T15:33:09.942Z,17.10
2022-10-25T15:35:49.662Z,17.00
2022-10-25T15:38:19.333Z,17.00
2022-10-25T15:40:49.667Z,16.90
2022-10-25T15:43:18.927Z,16.90
2022-10-25T15:45:56.681Z,16.90
2022-10-25T15:48:26.861Z,16.90
2022-10-25T15:50:58.963Z,16.90
2022-10-25T15:53:29.447Z,16.90
2022-10-25T15:56:00.459Z,16.80
2022-10-25T15:58:31.350Z,16.80
2022-10-25T16:01:06.555Z,16.80
2022-10-25T16:03:34.687Z,16.70
2022-10-25T16:06:05.658Z,16.70
2022-10-25T16:08:33.795Z,16.70
2022-10-25T16:11:02.030Z,16.60
2022-10-25T16:13:34.433Z,16.50
2022-10-25T16:16:21.945Z,16.40
2022-10-25T16:18:54.741Z,16.40
2022-10-25T16:21:24.485Z,16.40
2022-10-25T16:26:28.438Z,16.40
2022-10-25T16:28:58.397Z,16.60
2022-10-25T16:31:26.691Z,16.50
2022-10-25T16:33:54.981Z,16.40
2022-10-25T16:36:24.673Z,16.40
2022-10-25T16:38:53.049Z,16.10
2022-10-25T16:41:25.220Z,16.10
2022-10-25T16:43:55.352Z,16.00
2022-10-25T16:46:23.668Z,16.00
2022-10-25T16:48:52.108Z,15.80
2022-10-25T16:51:23.588Z,15.50
2022-10-25T16:53:53.223Z,15.30
2022-10-25T16:56:21.477Z,15.30
2022-10-25T16:58:49.633Z,15.20
2022-10-25T17:01:22.230Z,15.20
2022-10-25T17:03:51.541Z,14.90
2022-10-25T17:06:40.356Z,14.80
2022-10-25T17:09:12.452Z,14.70
2022-10-25T17:11:43.173Z,14.70
2022-10-25T17:14:12.006Z,14.60
2022-10-25T17:16:40.882Z,14.50
2022-10-25T17:19:10.413Z,14.40
2022-10-25T17:21:42.441Z,14.20
2022-10-25T17:24:12.249Z,14.10
2022-10-25T17:26:51.895Z,14.10
2022-10-25T17:29:23.272Z,14.20
2022-10-25T17:31:54.285Z,14.10
2022-10-25T17:34:23.317Z,13.80
2022-10-25T17:36:53.858Z,13.70
2022-10-25T17:39:26.754Z,13.70
2022-10-25T17:41:54.958Z,13.70
2022-10-25T17:44:23.165Z,13.80
2022-10-25T17:46:52.232Z,13.80
2022-10-25T17:56:48.468Z,13.60
2022-10-25T17:59:16.821Z,13.50
2022-10-25T18:01:44.950Z,13.20
2022-10-25T18:04:15.922Z,13.10
2022-10-25T18:06:44.211Z,13.00
2022-10-25T18:09:12.360Z,13.00
2022-10-25T18:11:40.741Z,12.90
2022-10-25T18:14:11.763Z,12.90
2022-10-25T18:16:41.451Z,13.00
2022-10-25T18:19:15.023Z,12.90
2022-10-25T18:21:44.524Z,13.00
2022-10-25T18:24:14.346Z,13.10
2022-10-25T18:26:43.099Z,13.00
2022-10-25T18:29:15.503Z,13.10
2022-10-25T18:31:43.681Z,13.30
2022-10-25T18:34:14.482Z,13.20
2022-10-25T18:36:45.858Z,13.10
2022-10-25T18:39:18.097Z,13.00
2022-10-25T18:41:53.384Z,12.90
2022-10-25T19:02:43.019Z,12.40
2022-10-25T19:07:53.053Z,12.30
2022-10-25T19:13:06.929Z,12.30
2022-10-25T19:28:32.901Z,12.10
2022-10-25T19:31:18.416Z,12.10
2022-10-25T19:33:54.290Z,12.20
2022-10-25T19:36:23.619Z,12.20
2022-10-25T19:38:55.607Z,12.20
2022-10-25T19:41:27.776Z,12.20
2022-10-25T19:46:32.074Z,11.90
2022-10-25T19:49:02.989Z,11.90
2022-10-25T19:51:35.425Z,11.90
2022-10-25T19:54:08.313Z,11.80
2022-10-25T19:56:40.762Z,11.80
2022-10-25T19:59:12.520Z,11.80
2022-10-25T20:01:49.512Z,11.80
2022-10-25T20:04:23.199Z,11.90
2022-10-25T20:06:57.594Z,11.90
2022-10-25T20:09:28.892Z,11.80
2022-10-25T20:12:00.428Z,11.70
2022-10-25T20:14:33.956Z,11.60
2022-10-25T20:17:06.610Z,11.60
2022-10-25T20:19:36.377Z,11.60
2022-10-25T20:22:06.219Z,11.60
2022-10-25T20:24:35.020Z,11.60
2022-10-25T20:27:07.201Z,11.60
2022-10-25T20:29:39.712Z,11.70
2022-10-25T20:32:13.652Z,11.60
2022-10-25T20:34:45.190Z,11.70
2022-10-25T20:37:13.744Z,11.70
2022-10-25T20:39:45.793Z,11.80
2022-10-25T20:42:18.924Z,11.80
2022-10-25T20:44:53.050Z,11.90
2022-10-25T20:47:26.825Z,11.90
2022-10-25T20:52:24.765Z,11.70
2022-10-25T20:54:52.946Z,11.70
2022-10-25T20:57:23.348Z,11.70
2022-10-25T20:59:53.678Z,11.70
2022-10-25T21:02:26.437Z,11.60
2022-10-25T21:05:00.476Z,11.50
2022-10-25T21:07:33.166Z,11.50
2022-10-25T21:10:01.509Z,11.40
2022-10-25T21:12:30.733Z,11.30
2022-10-25T21:14:59.338Z,11.30
2022-10-25T21:17:28.854Z,11.20
2022-10-25T21:19:59.355Z,11.30
2022-10-25T21:22:30.405Z,11.30
2022-10-25T21:25:03.993Z,11.30
2022-10-25T21:27:33.427Z,11.40
2022-10-25T21:30:01.710Z,11.40
2022-10-25T21:32:33.024Z,11.50
2022-10-25T21:35:03.690Z,11.50
2022-10-25T21:37:33.692Z,11.50
2022-10-25T21:40:09.127Z,11.60
2022-10-25T21:42:41.596Z,11.60
2022-10-25T21:45:11.708Z,11.50
2022-10-25T21:47:41.922Z,11.50
2022-10-25T21:50:10.643Z,11.50
2022-10-25T21:52:38.752Z,11.50
2022-10-25T21:55:07.904Z,11.50
2022-10-25T21:57:38.026Z,11.50
2022-10-25T22:00:07.485Z,11.60
2022-10-25T22:05:10.456Z,11.70
2022-10-25T22:07:38.540Z,11.70
2022-10-25T22:10:07.782Z,11.90
2022-10-25T22:12:35.924Z,12.00
2022-10-25T22:15:04.049Z,11.90
2022-10-25T22:17:32.120Z,11.90
2022-10-25T22:20:01.787Z,11.80
2022-10-25T22:22:29.924Z,11.90
2022-10-25T22:24:58.094Z,11.90
2022-10-25T22:27:26.453Z,11.90
2022-10-25T22:29:54.527Z,11.90
2022-10-25T22:32:22.614Z,12.00
2022-10-25T22:34:50.868Z,12.00
2022-10-25T22:37:20.709Z,12.10
2022-10-25T22:39:48.897Z,12.00
2022-10-25T22:42:18.754Z,12.10
2022-10-25T22:44:46.917Z,12.10
2022-10-25T22:47:15.063Z,12.10
2022-10-25T22:49:45.204Z,12.10
2022-10-25T22:52:13.765Z,12.10
2022-10-25T22:54:43.146Z,12.10
2022-10-25T22:59:39.749Z,12.10
2022-10-25T23:02:07.831Z,12.10
2022-10-25T23:04:38.118Z,12.10
2022-10-25T23:07:06.232Z,12.10
2022-10-25T23:09:34.272Z,12.10
2022-10-25T23:12:03.790Z,12.20
2022-10-25T23:14:31.925Z,12.10
2022-10-25T23:17:00.126Z,12.10
2022-10-25T23:19:32.641Z,12.10
2022-10-25T23:22:00.854Z,12.10
2022-10-25T23:24:29.076Z,12.10
2022-10-25T23:26:57.322Z,12.10
2022-10-25T23:29:26.848Z,12.10
2022-10-25T23:31:58.525Z,12.10
2022-10-25T23:34:26.699Z,12.10
2022-10-25T23:36:54.707Z,12.10
2022-10-25T23:39:22.811Z,12.10
2022-10-25T23:41:51.973Z,12.00
2022-10-25T23:44:20.186Z,12.00
2022-10-25T23:46:50.246Z,12.00
2022-10-25T23:49:18.417Z,12.00
2022-10-25T23:51:55.728Z,12.00
2022-10-25T23:54:25.301Z,12.00
2022-10-25T23:56:56.368Z,12.00
